Weather at Gerald R. Ford International Airport

Public forecast

Using degrees Fahrenheit for public forecast. Weather courtesy of forecast.io.

Current aviation weather report (METAR) for Gerald R. Ford International Airport

2024/05/23 02:53 (retrieved 24 minutes ago)

KGRR 230253Z 23007KT 10SM CLR 16/10 A2986 RMK AO2 SLP109 T01610100 53015

Closest aviation forecast (TAF) to Gerald R. Ford International Airport

Forecast is more than 6 hours old.

Closest forecast is Selfridge Air National Guard Base Airport, 119.5 nm (221.3 km) E.

2024/05/22 19:25 (retrieved 8 hours ago)

TAF KMTC 221900Z 2219/2401 23020G30KT 9000 -SHRA FEW050 520004 QNH2964INS TEMPO 2219/2222 23020G35KT BECMG 2221/2222 26012KT 9999 NSW SKC 510033 QNH2971INS TX31/2221Z TN14/2310Z LAST NO AMDS AFT 2303 NEXT 2311